sensor_id;sensor_type;location;lat;lon;timestamp;pressure;altitude;pressure_sealevel;temperature;humidity
24892;BME280;12954;50.688;10.908;2022-09-13T00:01:08;95317.31;;;12.32;59.77
24892;BME280;12954;50.688;10.908;2022-09-13T00:03:39;95308.47;;;12.26;59.96
24892;BME280;12954;50.688;10.908;2022-09-13T00:06:09;95297.50;;;12.17;60.27
24892;BME280;12954;50.688;10.908;2022-09-13T00:08:38;95311.19;;;12.26;60.43
24892;BME280;12954;50.688;10.908;2022-09-13T00:11:07;95317.91;;;12.29;60.43
24892;BME280;12954;50.688;10.908;2022-09-13T00:13:40;95307.88;;;12.29;60.48
24892;BME280;12954;50.688;10.908;2022-09-13T00:16:10;95229.16;;;11.85;60.38
24892;BME280;12954;50.688;10.908;2022-09-13T00:18:41;95314.06;;;12.30;60.66
24892;BME280;12954;50.688;10.908;2022-09-13T00:21:12;95313.00;;;12.31;60.60
24892;BME280;12954;50.688;10.908;2022-09-13T00:23:43;95310.88;;;12.27;60.83
24892;BME280;12954;50.688;10.908;2022-09-13T00:26:13;95312.50;;;12.29;60.88
24892;BME280;12954;50.688;10.908;2022-09-13T00:28:43;95298.25;;;12.23;60.81
24892;BME280;12954;50.688;10.908;2022-09-13T00:31:12;95311.31;;;12.35;61.04
24892;BME280;12954;50.688;10.908;2022-09-13T00:33:42;95298.97;;;12.29;60.92
24892;BME280;12954;50.688;10.908;2022-09-13T00:36:11;95304.13;;;12.44;60.85
24892;BME280;12954;50.688;10.908;2022-09-13T00:38:41;95308.94;;;12.47;60.92
24892;BME280;12954;50.688;10.908;2022-09-13T00:41:12;95316.72;;;12.48;61.09
24892;BME280;12954;50.688;10.908;2022-09-13T00:43:47;95310.41;;;12.53;61.08
24892;BME280;12954;50.688;10.908;2022-09-13T00:46:21;95299.75;;;12.61;60.90
24892;BME280;12954;50.688;10.908;2022-09-13T00:48:58;95274.88;;;12.59;61.10
24892;BME280;12954;50.688;10.908;2022-09-13T00:51:27;95226.13;;;12.32;61.00
24892;BME280;12954;50.688;10.908;2022-09-13T00:53:56;95222.22;;;12.38;61.11
24892;BME280;12954;50.688;10.908;2022-09-13T00:56:30;95265.19;;;12.58;61.09
24892;BME280;12954;50.688;10.908;2022-09-13T00:59:04;95242.19;;;12.42;61.14
24892;BME280;12954;50.688;10.908;2022-09-13T01:01:37;95256.41;;;12.48;61.46
24892;BME280;12954;50.688;10.908;2022-09-13T01:04:08;95260.72;;;12.49;61.51
24892;BME280;12954;50.688;10.908;2022-09-13T01:06:38;95265.00;;;12.50;61.61
24892;BME280;12954;50.688;10.908;2022-09-13T01:09:09;95254.19;;;12.50;61.69
24892;BME280;12954;50.688;10.908;2022-09-13T01:11:44;95243.88;;;12.52;61.58
24892;BME280;12954;50.688;10.908;2022-09-13T01:14:17;95241.47;;;12.50;61.94
24892;BME280;12954;50.688;10.908;2022-09-13T01:16:47;95242.28;;;12.51;61.99
24892;BME280;12954;50.688;10.908;2022-09-13T01:19:17;95262.84;;;12.52;62.16
24892;BME280;12954;50.688;10.908;2022-09-13T01:22:06;95265.47;;;12.57;62.34
24892;BME280;12954;50.688;10.908;2022-09-13T01:25:18;95263.56;;;12.57;62.66
24892;BME280;12954;50.688;10.908;2022-09-13T01:30:52;95240.00;;;12.71;62.52
24892;BME280;12954;50.688;10.908;2022-09-13T01:33:46;95245.63;;;12.75;62.87
24892;BME280;12954;50.688;10.908;2022-09-13T01:36:49;95244.31;;;12.86;62.74
24892;BME280;12954;50.688;10.908;2022-09-13T01:39:28;95256.44;;;12.89;62.62
24892;BME280;12954;50.688;10.908;2022-09-13T01:42:10;95239.91;;;12.90;62.60
24892;BME280;12954;50.688;10.908;2022-09-13T01:44:55;95226.13;;;13.00;62.45
24892;BME280;12954;50.688;10.908;2022-09-13T01:47:31;95215.50;;;13.04;62.37
24892;BME280;12954;50.688;10.908;2022-09-13T01:50:10;95214.00;;;13.11;62.06
24892;BME280;12954;50.688;10.908;2022-09-13T01:52:49;95208.25;;;13.13;61.93
24892;BME280;12954;50.688;10.908;2022-09-13T01:55:28;95088.28;;;12.41;61.76
24892;BME280;12954;50.688;10.908;2022-09-13T01:58:04;95217.06;;;13.18;61.52
24892;BME280;12954;50.688;10.908;2022-09-13T02:00:38;95193.06;;;12.90;61.67
24892;BME280;12954;50.688;10.908;2022-09-13T02:03:13;95186.84;;;12.89;61.71
24892;BME280;12954;50.688;10.908;2022-09-13T02:05:46;95231.22;;;13.15;61.70
24892;BME280;12954;50.688;10.908;2022-09-13T02:08:22;95245.16;;;13.22;61.50
24892;BME280;12954;50.688;10.908;2022-09-13T02:10:57;95237.66;;;13.19;61.61
24892;BME280;12954;50.688;10.908;2022-09-13T02:13:30;95219.66;;;13.23;61.56
24892;BME280;12954;50.688;10.908;2022-09-13T02:16:07;95214.25;;;13.23;61.52
24892;BME280;12954;50.688;10.908;2022-09-13T02:18:39;95212.06;;;13.25;61.55
24892;BME280;12954;50.688;10.908;2022-09-13T02:21:10;95201.72;;;13.27;61.46
24892;BME280;12954;50.688;10.908;2022-09-13T02:23:43;95205.50;;;13.26;61.52
24892;BME280;12954;50.688;10.908;2022-09-13T02:26:14;95191.97;;;13.26;61.68
24892;BME280;12954;50.688;10.908;2022-09-13T02:28:46;95191.34;;;13.29;61.56
24892;BME280;12954;50.688;10.908;2022-09-13T02:31:18;95197.56;;;13.30;61.51
24892;BME280;12954;50.688;10.908;2022-09-13T02:33:54;95192.41;;;13.20;61.53
24892;BME280;12954;50.688;10.908;2022-09-13T02:36:26;95178.28;;;13.09;61.63
24892;BME280;12954;50.688;10.908;2022-09-13T02:38:59;95208.13;;;13.31;61.51
24892;BME280;12954;50.688;10.908;2022-09-13T02:41:33;95213.16;;;13.24;61.68
24892;BME280;12954;50.688;10.908;2022-09-13T02:44:06;95226.69;;;13.24;61.66
24892;BME280;12954;50.688;10.908;2022-09-13T02:46:56;95215.25;;;13.27;61.71
24892;BME280;12954;50.688;10.908;2022-09-13T02:49:31;95221.88;;;13.21;61.95
24892;BME280;12954;50.688;10.908;2022-09-13T02:52:06;95214.84;;;13.20;62.08
24892;BME280;12954;50.688;10.908;2022-09-13T02:54:39;95201.03;;;13.22;62.08
24892;BME280;12954;50.688;10.908;2022-09-13T02:57:13;95196.59;;;13.26;62.02
24892;BME280;12954;50.688;10.908;2022-09-13T02:59:44;95169.78;;;13.02;61.90
24892;BME280;12954;50.688;10.908;2022-09-13T03:02:16;95211.53;;;13.23;62.20
24892;BME280;12954;50.688;10.908;2022-09-13T03:04:49;95208.75;;;13.28;61.90
24892;BME280;12954;50.688;10.908;2022-09-13T03:07:18;95211.44;;;13.28;61.95
24892;BME280;12954;50.688;10.908;2022-09-13T03:09:50;95212.06;;;13.25;62.09
24892;BME280;12954;50.688;10.908;2022-09-13T03:12:38;95202.72;;;13.31;61.94
24892;BME280;12954;50.688;10.908;2022-09-13T03:15:14;95211.59;;;13.32;61.94
24892;BME280;12954;50.688;10.908;2022-09-13T03:17:53;95206.91;;;13.38;61.82
24892;BME280;12954;50.688;10.908;2022-09-13T03:20:35;95214.41;;;13.41;61.69
24892;BME280;12954;50.688;10.908;2022-09-13T03:23:33;95200.97;;;13.35;61.77
24892;BME280;12954;50.688;10.908;2022-09-13T03:26:19;95213.81;;;13.44;61.74
24892;BME280;12954;50.688;10.908;2022-09-13T03:28:58;95204.56;;;13.45;61.59
24892;BME280;12954;50.688;10.908;2022-09-13T03:31:32;95199.13;;;13.45;61.73
24892;BME280;12954;50.688;10.908;2022-09-13T03:34:08;95178.59;;;13.44;61.67
24892;BME280;12954;50.688;10.908;2022-09-13T03:36:43;95162.44;;;13.38;61.64
24892;BME280;12954;50.688;10.908;2022-09-13T03:39:17;95180.03;;;13.50;61.59
24892;BME280;12954;50.688;10.908;2022-09-13T03:41:53;95177.03;;;13.51;61.48
24892;BME280;12954;50.688;10.908;2022-09-13T03:44:24;95133.59;;;13.20;61.57
24892;BME280;12954;50.688;10.908;2022-09-13T03:46:56;95179.16;;;13.54;61.30
24892;BME280;12954;50.688;10.908;2022-09-13T03:49:26;95189.69;;;13.56;61.40
24892;BME280;12954;50.688;10.908;2022-09-13T03:51:57;95188.56;;;13.57;61.30
24892;BME280;12954;50.688;10.908;2022-09-13T03:54:30;95172.66;;;13.42;61.22
24892;BME280;12954;50.688;10.908;2022-09-13T03:57:08;95198.31;;;13.58;61.13
24892;BME280;12954;50.688;10.908;2022-09-13T03:59:38;95192.28;;;13.61;61.14
24892;BME280;12954;50.688;10.908;2022-09-13T04:02:09;95193.88;;;13.62;61.02
24892;BME280;12954;50.688;10.908;2022-09-13T04:04:39;95169.81;;;13.47;61.00
24892;BME280;12954;50.688;10.908;2022-09-13T04:07:11;95197.56;;;13.66;60.96
24892;BME280;12954;50.688;10.908;2022-09-13T04:09:39;95193.25;;;13.65;60.97
24892;BME280;12954;50.688;10.908;2022-09-13T04:12:07;95201.91;;;13.67;60.96
24892;BME280;12954;50.688;10.908;2022-09-13T04:14:36;95205.91;;;13.69;60.92
24892;BME280;12954;50.688;10.908;2022-09-13T04:17:05;95197.44;;;13.71;60.83
24892;BME280;12954;50.688;10.908;2022-09-13T04:19:34;95208.78;;;13.73;60.86
24892;BME280;12954;50.688;10.908;2022-09-13T04:22:03;95192.63;;;13.68;60.86
24892;BME280;12954;50.688;10.908;2022-09-13T04:24:33;95207.84;;;13.77;60.83
24892;BME280;12954;50.688;10.908;2022-09-13T04:27:02;95194.50;;;13.81;60.73
24892;BME280;12954;50.688;10.908;2022-09-13T04:29:31;95200.41;;;13.83;61.19
24892;BME280;12954;50.688;10.908;2022-09-13T04:32:00;95171.50;;;13.78;61.79
24892;BME280;12954;50.688;10.908;2022-09-13T04:34:28;95192.25;;;14.05;62.01
24892;BME280;12954;50.688;10.908;2022-09-13T04:36:57;95187.16;;;14.12;61.61
24892;BME280;12954;50.688;10.908;2022-09-13T04:39:25;95189.72;;;14.17;61.39
24892;BME280;12954;50.688;10.908;2022-09-13T04:41:55;95180.19;;;14.20;60.96
24892;BME280;12954;50.688;10.908;2022-09-13T04:44:24;95144.06;;;14.02;60.74
24892;BME280;12954;50.688;10.908;2022-09-13T04:46:53;95170.97;;;14.29;60.85
24892;BME280;12954;50.688;10.908;2022-09-13T04:49:21;95161.09;;;14.33;60.64
24892;BME280;12954;50.688;10.908;2022-09-13T04:51:50;95171.94;;;14.33;60.15
24892;BME280;12954;50.688;10.908;2022-09-13T04:54:18;95178.81;;;14.31;59.93
24892;BME280;12954;50.688;10.908;2022-09-13T04:56:47;95164.41;;;14.22;59.99
24892;BME280;12954;50.688;10.908;2022-09-13T04:59:17;95163.59;;;14.21;59.78
24892;BME280;12954;50.688;10.908;2022-09-13T05:01:46;95170.13;;;14.20;59.69
24892;BME280;12954;50.688;10.908;2022-09-13T05:04:15;95165.31;;;14.17;59.73
24892;BME280;12954;50.688;10.908;2022-09-13T05:06:43;95143.63;;;14.17;59.55
24892;BME280;12954;50.688;10.908;2022-09-13T05:09:14;95156.06;;;14.18;59.58
24892;BME280;12954;50.688;10.908;2022-09-13T05:11:43;95163.09;;;14.19;59.40
24892;BME280;12954;50.688;10.908;2022-09-13T05:14:11;95152.75;;;14.21;59.22
24892;BME280;12954;50.688;10.908;2022-09-13T05:16:41;95156.06;;;14.18;59.36
24892;BME280;12954;50.688;10.908;2022-09-13T05:19:11;95156.56;;;14.20;59.21
24892;BME280;12954;50.688;10.908;2022-09-13T05:21:39;95161.97;;;14.20;59.16
24892;BME280;12954;50.688;10.908;2022-09-13T05:24:08;95130.31;;;13.99;59.17
24892;BME280;12954;50.688;10.908;2022-09-13T05:26:37;95161.34;;;14.23;59.03
24892;BME280;12954;50.688;10.908;2022-09-13T05:29:05;95161.34;;;14.23;59.04
24892;BME280;12954;50.688;10.908;2022-09-13T05:31:36;95166.00;;;14.23;59.03
24892;BME280;12954;50.688;10.908;2022-09-13T05:34:10;95170.00;;;14.25;59.07
24892;BME280;12954;50.688;10.908;2022-09-13T05:36:39;95170.00;;;14.25;59.00
24892;BME280;12954;50.688;10.908;2022-09-13T05:39:12;95178.63;;;14.27;58.75
24892;BME280;12954;50.688;10.908;2022-09-13T05:42:01;95182.44;;;14.26;58.88
24892;BME280;12954;50.688;10.908;2022-09-13T05:44:30;95186.94;;;14.31;58.83
24892;BME280;12954;50.688;10.908;2022-09-13T05:46:58;95180.56;;;14.35;58.69
24892;BME280;12954;50.688;10.908;2022-09-13T05:49:28;95167.97;;;14.39;58.60
24892;BME280;12954;50.688;10.908;2022-09-13T05:51:57;95173.88;;;14.41;58.56
24892;BME280;12954;50.688;10.908;2022-09-13T05:54:25;95160.78;;;14.43;58.43
24892;BME280;12954;50.688;10.908;2022-09-13T05:56:54;95167.88;;;14.53;58.32
24892;BME280;12954;50.688;10.908;2022-09-13T05:59:23;95172.38;;;14.58;58.21
24892;BME280;12954;50.688;10.908;2022-09-13T06:01:51;95144.50;;;14.43;58.12
24892;BME280;12954;50.688;10.908;2022-09-13T06:04:20;95174.78;;;14.68;58.16
24892;BME280;12954;50.688;10.908;2022-09-13T06:06:50;95170.00;;;14.73;58.15
24892;BME280;12954;50.688;10.908;2022-09-13T06:09:18;95176.72;;;14.76;58.06
24892;BME280;12954;50.688;10.908;2022-09-13T06:11:46;95143.16;;;14.55;58.10
24892;BME280;12954;50.688;10.908;2022-09-13T06:14:15;95165.75;;;14.81;57.89
24892;BME280;12954;50.688;10.908;2022-09-13T06:16:43;95157.44;;;14.86;57.67
24892;BME280;12954;50.688;10.908;2022-09-13T06:19:11;95150.56;;;14.88;57.58
24892;BME280;12954;50.688;10.908;2022-09-13T06:21:40;95160.63;;;14.88;57.45
24892;BME280;12954;50.688;10.908;2022-09-13T06:24:10;95153.75;;;14.90;57.33
24892;BME280;12954;50.688;10.908;2022-09-13T06:26:38;95167.03;;;14.92;57.30
24892;BME280;12954;50.688;10.908;2022-09-13T06:29:10;95159.84;;;14.96;57.10
24892;BME280;12954;50.688;10.908;2022-09-13T06:31:38;95158.72;;;14.97;56.96
24892;BME280;12954;50.688;10.908;2022-09-13T06:34:11;95167.38;;;14.99;56.93
24892;BME280;12954;50.688;10.908;2022-09-13T06:36:41;95164.31;;;15.00;56.85
24892;BME280;12954;50.688;10.908;2022-09-13T06:39:11;95159.34;;;15.02;56.88
24892;BME280;12954;50.688;10.908;2022-09-13T06:41:40;95142.41;;;14.80;56.89
24892;BME280;12954;50.688;10.908;2022-09-13T06:44:08;95164.50;;;15.04;56.80
24892;BME280;12954;50.688;10.908;2022-09-13T06:46:37;95161.16;;;15.07;56.90
24892;BME280;12954;50.688;10.908;2022-09-13T06:49:07;95158.44;;;15.07;56.75
24892;BME280;12954;50.688;10.908;2022-09-13T06:51:35;95109.34;;;14.78;56.61
24892;BME280;12954;50.688;10.908;2022-09-13T06:54:04;95131.38;;;14.85;57.01
24892;BME280;12954;50.688;10.908;2022-09-13T06:56:35;95166.09;;;15.05;56.86
24892;BME280;12954;50.688;10.908;2022-09-13T06:59:06;95155.88;;;15.02;56.87
24892;BME280;12954;50.688;10.908;2022-09-13T07:01:36;95168.16;;;14.99;56.81
24892;BME280;12954;50.688;10.908;2022-09-13T07:04:06;95165.75;;;14.98;57.01
24892;BME280;12954;50.688;10.908;2022-09-13T07:06:37;95162.56;;;14.96;57.11
24892;BME280;12954;50.688;10.908;2022-09-13T07:09:07;95168.00;;;14.96;57.11
24892;BME280;12954;50.688;10.908;2022-09-13T07:11:40;95171.81;;;14.95;57.34
24892;BME280;12954;50.688;10.908;2022-09-13T07:14:12;95175.34;;;14.95;57.44
24892;BME280;12954;50.688;10.908;2022-09-13T07:16:41;95192.75;;;14.94;57.51
24892;BME280;12954;50.688;10.908;2022-09-13T07:19:13;95205.53;;;14.94;57.94
24892;BME280;12954;50.688;10.908;2022-09-13T07:21:42;95191.13;;;14.93;58.28
24892;BME280;12954;50.688;10.908;2022-09-13T07:24:11;95151.78;;;14.65;58.68
24892;BME280;12954;50.688;10.908;2022-09-13T07:26:41;95181.41;;;14.84;59.07
24892;BME280;12954;50.688;10.908;2022-09-13T07:29:11;95194.16;;;14.75;59.41
24892;BME280;12954;50.688;10.908;2022-09-13T07:31:42;95167.19;;;14.47;59.55
24892;BME280;12954;50.688;10.908;2022-09-13T07:34:12;95195.72;;;14.67;59.91
24892;BME280;12954;50.688;10.908;2022-09-13T07:36:41;95202.91;;;14.63;59.96
24892;BME280;12954;50.688;10.908;2022-09-13T07:39:10;95183.88;;;14.55;60.60
24892;BME280;12954;50.688;10.908;2022-09-13T07:41:44;95172.38;;;14.58;60.54
24892;BME280;12954;50.688;10.908;2022-09-13T07:44:14;95162.97;;;14.55;60.70
24892;BME280;12954;50.688;10.908;2022-09-13T07:46:42;95175.56;;;14.60;60.80
24892;BME280;12954;50.688;10.908;2022-09-13T07:49:12;95195.56;;;14.64;60.89
24892;BME280;12954;50.688;10.908;2022-09-13T07:51:42;95193.47;;;14.61;60.99
24892;BME280;12954;50.688;10.908;2022-09-13T07:54:12;95204.16;;;14.57;61.28
24892;BME280;12954;50.688;10.908;2022-09-13T07:56:41;95196.16;;;14.52;61.60
24892;BME280;12954;50.688;10.908;2022-09-13T07:59:13;95206.22;;;14.52;61.94
24892;BME280;12954;50.688;10.908;2022-09-13T08:01:43;95211.03;;;14.55;62.08
24892;BME280;12954;50.688;10.908;2022-09-13T08:04:13;95217.06;;;14.52;62.30
24892;BME280;12954;50.688;10.908;2022-09-13T08:06:44;95209.41;;;14.54;62.56
24892;BME280;12954;50.688;10.908;2022-09-13T08:09:14;95200.97;;;14.55;62.93
24892;BME280;12954;50.688;10.908;2022-09-13T08:11:44;95205.75;;;14.58;63.23
24892;BME280;12954;50.688;10.908;2022-09-13T08:14:17;95196.66;;;14.63;63.17
24892;BME280;12954;50.688;10.908;2022-09-13T08:16:45;95190.59;;;14.66;63.16
24892;BME280;12954;50.688;10.908;2022-09-13T08:19:16;95177.66;;;14.63;63.04
24892;BME280;12954;50.688;10.908;2022-09-13T08:21:46;95194.44;;;14.73;62.91
24892;BME280;12954;50.688;10.908;2022-09-13T08:24:16;95173.22;;;14.67;62.90
24892;BME280;12954;50.688;10.908;2022-09-13T08:26:45;95178.03;;;14.78;62.74
24892;BME280;12954;50.688;10.908;2022-09-13T08:29:15;95176.59;;;14.81;62.28
24892;BME280;12954;50.688;10.908;2022-09-13T08:31:44;95176.44;;;14.77;62.13
24892;BME280;12954;50.688;10.908;2022-09-13T08:34:14;95180.13;;;14.90;61.95
24892;BME280;12954;50.688;10.908;2022-09-13T08:36:42;95186.38;;;14.99;61.76
24892;BME280;12954;50.688;10.908;2022-09-13T08:39:11;95186.22;;;15.04;61.47
24892;BME280;12954;50.688;10.908;2022-09-13T08:42:00;95187.03;;;15.13;61.01
24892;BME280;12954;50.688;10.908;2022-09-13T08:44:35;95189.75;;;15.13;61.16
24892;BME280;12954;50.688;10.908;2022-09-13T08:47:26;95176.00;;;15.18;60.69
24892;BME280;12954;50.688;10.908;2022-09-13T08:50:03;95180.81;;;15.21;60.67
24892;BME280;12954;50.688;10.908;2022-09-13T08:52:39;95179.19;;;15.20;60.05
24892;BME280;12954;50.688;10.908;2022-09-13T08:55:23;95192.97;;;15.32;59.52
24892;BME280;12954;50.688;10.908;2022-09-13T08:57:55;95162.25;;;15.23;59.35
24892;BME280;12954;50.688;10.908;2022-09-13T09:00:31;95165.13;;;15.35;59.11
24892;BME280;12954;50.688;10.908;2022-09-13T09:03:18;95163.41;;;15.48;58.14
24892;BME280;12954;50.688;10.908;2022-09-13T09:05:49;95160.38;;;15.49;58.26
24892;BME280;12954;50.688;10.908;2022-09-13T09:08:27;95156.06;;;15.57;57.63
24892;BME280;12954;50.688;10.908;2022-09-13T09:11:02;95165.78;;;15.58;57.32
24892;BME280;12954;50.688;10.908;2022-09-13T09:13:39;95169.94;;;15.73;57.18
24892;BME280;12954;50.688;10.908;2022-09-13T09:16:24;95168.81;;;15.82;57.49
24892;BME280;12954;50.688;10.908;2022-09-13T09:18:58;95180.81;;;15.90;57.81
24892;BME280;12954;50.688;10.908;2022-09-13T09:21:31;95181.72;;;16.02;57.64
24892;BME280;12954;50.688;10.908;2022-09-13T09:24:01;95177.88;;;16.12;57.12
24892;BME280;12954;50.688;10.908;2022-09-13T09:26:31;95181.69;;;16.11;57.03
24892;BME280;12954;50.688;10.908;2022-09-13T09:29:07;95178.81;;;16.16;56.76
24892;BME280;12954;50.688;10.908;2022-09-13T09:31:44;95179.75;;;16.20;56.63
24892;BME280;12954;50.688;10.908;2022-09-13T09:34:23;95170.00;;;16.19;56.96
24892;BME280;12954;50.688;10.908;2022-09-13T09:37:02;95175.72;;;16.35;57.00
24892;BME280;12954;50.688;10.908;2022-09-13T09:39:34;95183.22;;;16.46;56.80
24892;BME280;12954;50.688;10.908;2022-09-13T09:42:10;95180.94;;;16.57;56.54
24892;BME280;12954;50.688;10.908;2022-09-13T09:44:42;95170.66;;;16.62;56.45
24892;BME280;12954;50.688;10.908;2022-09-13T09:47:18;95174.13;;;16.72;56.42
24892;BME280;12954;50.688;10.908;2022-09-13T09:49:51;95177.13;;;16.79;56.75
24892;BME280;12954;50.688;10.908;2022-09-13T09:52:42;95089.75;;;16.34;56.38
24892;BME280;12954;50.688;10.908;2022-09-13T09:55:16;95178.84;;;16.92;56.46
24892;BME280;12954;50.688;10.908;2022-09-13T09:57:53;95167.28;;;16.95;56.32
24892;BME280;12954;50.688;10.908;2022-09-13T10:00:23;95158.44;;;16.98;56.18
24892;BME280;12954;50.688;10.908;2022-09-13T10:02:56;95160.13;;;17.11;55.75
24892;BME280;12954;50.688;10.908;2022-09-13T10:05:26;95162.69;;;17.16;55.28
24892;BME280;12954;50.688;10.908;2022-09-13T10:07:58;95157.34;;;17.19;54.94
24892;BME280;12954;50.688;10.908;2022-09-13T10:10:35;95168.38;;;17.23;55.08
24892;BME280;12954;50.688;10.908;2022-09-13T10:13:06;95159.09;;;17.24;55.12
24892;BME280;12954;50.688;10.908;2022-09-13T10:15:51;95164.47;;;17.33;54.87
24892;BME280;12954;50.688;10.908;2022-09-13T10:18:23;95168.13;;;17.37;54.60
24892;BME280;12954;50.688;10.908;2022-09-13T10:21:21;95167.13;;;17.41;54.30
24892;BME280;12954;50.688;10.908;2022-09-13T10:24:15;95148.97;;;17.45;54.11
24892;BME280;12954;50.688;10.908;2022-09-13T10:26:44;95138.88;;;17.46;54.25
24892;BME280;12954;50.688;10.908;2022-09-13T10:29:15;95144.13;;;17.51;53.75
24892;BME280;12954;50.688;10.908;2022-09-13T10:31:46;95145.38;;;17.53;53.42
24892;BME280;12954;50.688;10.908;2022-09-13T10:34:20;95152.44;;;17.54;53.55
24892;BME280;12954;50.688;10.908;2022-09-13T10:36:53;95139.25;;;17.56;52.96
24892;BME280;12954;50.688;10.908;2022-09-13T10:39:24;95130.13;;;17.52;52.54
24892;BME280;12954;50.688;10.908;2022-09-13T10:41:55;95140.97;;;17.61;52.33
24892;BME280;12954;50.688;10.908;2022-09-13T10:44:30;95134.97;;;17.67;52.03
24892;BME280;12954;50.688;10.908;2022-09-13T10:47:03;95126.56;;;17.72;50.85
24892;BME280;12954;50.688;10.908;2022-09-13T10:49:40;95148.44;;;17.85;50.46
24892;BME280;12954;50.688;10.908;2022-09-13T10:52:27;95139.81;;;17.83;50.60
24892;BME280;12954;50.688;10.908;2022-09-13T10:55:28;95134.94;;;17.88;50.73
24892;BME280;12954;50.688;10.908;2022-09-13T10:58:15;95135.25;;;18.07;50.09
24892;BME280;12954;50.688;10.908;2022-09-13T11:04:02;95132.50;;;18.07;49.59
24892;BME280;12954;50.688;10.908;2022-09-13T11:06:41;95136.38;;;18.06;50.02
24892;BME280;12954;50.688;10.908;2022-09-13T11:09:15;95125.56;;;18.10;49.99
24892;BME280;12954;50.688;10.908;2022-09-13T11:11:53;95135.59;;;18.18;50.48
24892;BME280;12954;50.688;10.908;2022-09-13T11:14:40;95130.38;;;18.37;50.43
24892;BME280;12954;50.688;10.908;2022-09-13T11:17:19;95125.41;;;18.51;50.22
24892;BME280;12954;50.688;10.908;2022-09-13T11:20:11;95122.00;;;18.66;49.84
24892;BME280;12954;50.688;10.908;2022-09-13T11:25:38;95132.47;;;18.88;49.38
24892;BME280;12954;50.688;10.908;2022-09-13T11:28:19;95139.06;;;19.00;49.10
24892;BME280;12954;50.688;10.908;2022-09-13T11:31:03;95144.50;;;19.12;48.49
24892;BME280;12954;50.688;10.908;2022-09-13T11:33:45;95134.22;;;19.21;48.32
24892;BME280;12954;50.688;10.908;2022-09-13T11:36:45;95128.25;;;19.31;48.10
24892;BME280;12954;50.688;10.908;2022-09-13T11:39:25;95135.88;;;19.37;47.91
24892;BME280;12954;50.688;10.908;2022-09-13T11:42:10;95136.13;;;19.45;47.85
24892;BME280;12954;50.688;10.908;2022-09-13T11:48:14;95088.59;;;19.37;47.57
24892;BME280;12954;50.688;10.908;2022-09-13T11:50:56;95129.88;;;19.72;48.01
24892;BME280;12954;50.688;10.908;2022-09-13T11:53:39;95134.84;;;19.82;47.84
24892;BME280;12954;50.688;10.908;2022-09-13T11:56:14;95126.47;;;19.90;46.18
24892;BME280;12954;50.688;10.908;2022-09-13T11:58:51;95132.16;;;19.97;46.38
24892;BME280;12954;50.688;10.908;2022-09-13T12:01:24;95122.97;;;20.06;46.34
24892;BME280;12954;50.688;10.908;2022-09-13T12:03:59;95112.25;;;20.13;45.97
24892;BME280;12954;50.688;10.908;2022-09-13T12:06:31;95117.78;;;20.16;46.02
24892;BME280;12954;50.688;10.908;2022-09-13T12:09:05;95113.84;;;20.29;44.06
24892;BME280;12954;50.688;10.908;2022-09-13T12:11:41;95109.22;;;20.18;44.65
24892;BME280;12954;50.688;10.908;2022-09-13T12:14:14;95117.19;;;20.23;44.85
24892;BME280;12954;50.688;10.908;2022-09-13T12:16:46;95096.69;;;20.17;44.09
24892;BME280;12954;50.688;10.908;2022-09-13T12:19:20;95118.44;;;20.41;43.10
24892;BME280;12954;50.688;10.908;2022-09-13T12:21:52;95120.28;;;20.37;43.04
24892;BME280;12954;50.688;10.908;2022-09-13T12:24:27;95124.63;;;20.38;43.47
24892;BME280;12954;50.688;10.908;2022-09-13T12:27:03;95092.00;;;20.17;43.31
24892;BME280;12954;50.688;10.908;2022-09-13T12:29:42;95115.78;;;20.44;42.64
24892;BME280;12954;50.688;10.908;2022-09-13T12:32:12;95114.72;;;20.49;42.78
24892;BME280;12954;50.688;10.908;2022-09-13T12:34:43;95114.09;;;20.56;42.89
24892;BME280;12954;50.688;10.908;2022-09-13T12:37:33;95118.25;;;20.65;42.36
24892;BME280;12954;50.688;10.908;2022-09-13T12:40:31;95121.59;;;20.74;42.45
24892;BME280;12954;50.688;10.908;2022-09-13T12:43:23;95118.06;;;20.89;39.74
24892;BME280;12954;50.688;10.908;2022-09-13T12:46:20;95119.38;;;20.80;40.77
24892;BME280;12954;50.688;10.908;2022-09-13T12:49:07;95112.56;;;20.89;41.17
24892;BME280;12954;50.688;10.908;2022-09-13T12:51:52;95114.34;;;20.97;41.50
24892;BME280;12954;50.688;10.908;2022-09-13T12:54:42;95113.88;;;20.95;41.72
24892;BME280;12954;50.688;10.908;2022-09-13T12:57:24;95109.28;;;20.99;42.09
24892;BME280;12954;50.688;10.908;2022-09-13T13:00:16;95111.69;;;21.01;41.81
24892;BME280;12954;50.688;10.908;2022-09-13T13:02:58;95117.09;;;20.97;41.87
24892;BME280;12954;50.688;10.908;2022-09-13T13:05:29;95111.84;;;20.92;41.94
24892;BME280;12954;50.688;10.908;2022-09-13T13:08:02;95100.38;;;20.87;42.20
24892;BME280;12954;50.688;10.908;2022-09-13T13:10:33;95099.31;;;20.91;42.06
24892;BME280;12954;50.688;10.908;2022-09-13T13:13:10;95104.09;;;20.94;42.27
24892;BME280;12954;50.688;10.908;2022-09-13T13:15:59;95105.22;;;20.93;42.66
24892;BME280;12954;50.688;10.908;2022-09-13T13:18:31;95094.69;;;20.95;42.26
24892;BME280;12954;50.688;10.908;2022-09-13T13:21:33;95074.16;;;20.89;42.59
24892;BME280;12954;50.688;10.908;2022-09-13T13:27:36;95074.34;;;20.96;42.68
24892;BME280;12954;50.688;10.908;2022-09-13T13:33:22;95067.97;;;20.92;43.19
24892;BME280;12954;50.688;10.908;2022-09-13T13:35:53;95065.09;;;21.04;43.33
24892;BME280;12954;50.688;10.908;2022-09-13T13:38:40;95030.97;;;20.83;42.63
24892;BME280;12954;50.688;10.908;2022-09-13T13:41:37;95058.09;;;21.07;43.03
24892;BME280;12954;50.688;10.908;2022-09-13T13:50:31;95049.03;;;21.22;43.02
24892;BME280;12954;50.688;10.908;2022-09-13T13:53:22;95039.72;;;21.27;43.28